Time;durP1;ratioP1;P1;durP2;ratioP2;P2;SDS_P1;SDS_P2;PMS_P1;PMS_P2;Temp;Humidity;BMP_temperature;BMP_pressure;BME280_temperature;BME280_humidity;BME280_pressure;Samples;Min_cycle;Max_cycle;Signal;HPM_P1;HPM_P2
2021/10/03 00:00:18;;;;;;;2.27;2.07;;;;;;;17.01;89.35;99096.97;5091367;28;20174;-73
2021/10/03 00:02:46;;;;;;;3.57;3.27;;;;;;;17.04;89.35;99101.72;5091047;28;20174;-73
2021/10/03 00:05:14;;;;;;;3.73;2.50;;;;;;;16.99;88.87;99091.06;5090888;28;20204;-73
2021/10/03 00:07:42;;;;;;;2.90;2.70;;;;;;;17.00;88.90;99086.34;5091264;28;20194;-73
2021/10/03 00:10:09;;;;;;;2.73;2.53;;;;;;;17.01;89.69;99083.19;5090795;28;20205;-73
2021/10/03 00:12:35;;;;;;;4.17;3.03;;;;;;;16.91;90.46;99075.66;5090889;28;20173;-73
2021/10/03 00:15:00;;;;;;;3.97;2.80;;;;;;;16.95;90.11;99065.44;5090958;28;20223;-73
2021/10/03 00:17:26;;;;;;;3.07;2.87;;;;;;;16.92;90.23;99067.00;5090928;28;20170;-73
2021/10/03 00:19:51;;;;;;;3.00;2.77;;;;;;;16.94;89.43;99061.09;5090843;28;20181;-72
2021/10/03 00:22:17;;;;;;;2.80;2.60;;;;;;;16.99;89.05;99062.69;5090291;28;20174;-73
2021/10/03 00:24:42;;;;;;;3.60;2.83;;;;;;;17.06;88.42;99060.72;5090681;28;20217;-73
2021/10/03 00:27:08;;;;;;;3.53;3.23;;;;;;;17.14;87.67;99059.59;5090949;28;20172;-73
2021/10/03 00:29:34;;;;;;;2.37;2.20;;;;;;;17.17;87.76;99055.25;5090850;28;20193;-73
2021/10/03 00:32:02;;;;;;;4.57;2.73;;;;;;;17.23;87.00;99048.19;5090872;28;20170;-73
2021/10/03 00:34:28;;;;;;;3.80;3.00;;;;;;;17.17;87.16;99056.03;5090612;28;20657;-73
2021/10/03 00:36:54;;;;;;;4.10;3.17;;;;;;;17.21;86.53;99051.34;5090628;28;20227;-73
2021/10/03 00:39:19;;;;;;;3.17;2.90;;;;;;;17.34;86.30;99054.50;5091043;28;20170;-73
2021/10/03 00:41:45;;;;;;;3.20;2.97;;;;;;;17.34;86.09;99057.25;5090568;28;20221;-73
2021/10/03 00:44:11;;;;;;;4.03;2.80;;;;;;;17.48;84.72;99051.78;5090343;28;20199;-73
2021/10/03 00:46:36;;;;;;;3.97;3.20;;;;;;;17.40;85.54;99046.66;5090574;28;20171;-72
2021/10/03 00:49:02;;;;;;;3.13;2.90;;;;;;;17.42;85.16;99049.81;5090473;28;20194;-73
2021/10/03 00:51:27;;;;;;;3.10;2.80;;;;;;;17.49;84.34;99044.28;5090541;28;20174;-73
2021/10/03 00:53:52;;;;;;;3.53;3.23;;;;;;;17.52;84.36;99032.47;5090629;28;20234;-73
2021/10/03 00:56:18;;;;;;;3.63;3.03;;;;;;;17.61;83.83;99038.38;5094137;28;20170;-73
2021/10/03 00:58:44;;;;;;;2.70;2.50;;;;;;;17.61;83.26;99024.56;5102472;28;20536;-73
2021/10/03 01:01:11;;;;;;;2.83;2.63;;;;;;;17.59;83.88;99018.66;5092261;28;20162;-73
2021/10/03 01:03:37;;;;;;;2.93;2.73;;;;;;;17.63;83.27;99027.72;5091821;28;20177;-73
2021/10/03 01:06:06;;;;;;;3.30;2.90;;;;;;;17.61;83.80;99023.78;5090788;28;20328;-73
2021/10/03 01:08:31;;;;;;;2.70;2.50;;;;;;;17.63;83.35;99010.38;5090508;28;20597;-73
2021/10/03 01:10:57;;;;;;;2.83;2.57;;;;;;;17.63;82.65;99016.69;5090614;28;20182;-73
2021/10/03 01:13:23;;;;;;;3.43;3.13;;;;;;;17.68;82.70;99010.81;5090494;28;20173;-73
2021/10/03 01:15:55;;;;;;;2.80;2.60;;;;;;;17.62;82.79;99008.78;5090341;28;20547;-73
2021/10/03 01:18:21;;;;;;;3.87;3.50;;;;;;;17.65;82.88;99013.53;5090495;28;20235;-73
2021/10/03 01:20:46;;;;;;;4.43;2.63;;;;;;;17.65;82.50;98997.75;5090304;28;20185;-73
2021/10/03 01:23:13;;;;;;;2.73;2.53;;;;;;;17.71;82.55;98989.91;5090376;28;20542;-73
2021/10/03 01:25:42;;;;;;;3.17;2.63;;;;;;;17.72;81.90;98989.50;5090561;28;20226;-73
2021/10/03 01:28:08;;;;;;;2.53;2.10;;;;;;;17.82;81.28;98991.47;5090492;28;20166;-73
2021/10/03 01:30:36;;;;;;;4.20;2.90;;;;;;;17.80;80.91;98985.56;5090336;28;20201;-73
2021/10/03 01:33:02;;;;;;;2.97;2.70;;;;;;;17.88;80.46;98988.31;5090114;28;20190;-73
2021/10/03 01:35:27;;;;;;;3.10;2.80;;;;;;;17.91;80.24;98993.81;5093069;28;20704;-73
2021/10/03 01:37:53;;;;;;;2.97;2.77;;;;;;;17.96;79.67;98984.38;5093902;28;20272;-73
2021/10/03 01:40:19;;;;;;;2.97;2.43;;;;;;;18.07;78.54;98991.44;5094178;28;20315;-73
2021/10/03 01:42:46;;;;;;;1.93;1.67;;;;;;;18.07;78.75;98990.63;5094080;28;20628;-73
2021/10/03 01:45:14;;;;;;;2.40;2.20;;;;;;;18.10;78.25;99003.69;5093562;28;20186;-73
2021/10/03 01:48:11;;;;;;;3.40;3.10;;;;;;;18.11;78.16;99000.53;5075491;28;20181;-73
2021/10/03 01:50:48;;;;;;;2.60;2.37;;;;;;;18.01;78.97;98998.56;5093643;28;20202;-73
2021/10/03 01:53:17;;;;;;;4.37;2.03;;;;;;;18.03;78.39;99004.47;5075261;28;20268;-73
2021/10/03 01:55:44;;;;;;;2.90;2.70;;;;;;;18.12;78.14;99009.59;5093457;28;20170;-73
2021/10/03 01:58:12;;;;;;;3.00;2.20;;;;;;;18.27;77.79;98996.53;5093651;28;20201;-73
2021/10/03 02:00:39;;;;;;;2.90;2.60;;;;;;;18.21;78.89;98996.16;5093663;28;20744;-73
2021/10/03 02:03:06;;;;;;;2.73;2.53;;;;;;;18.18;78.79;99002.47;5093685;28;20519;-73
2021/10/03 02:05:40;;;;;;;2.63;2.43;;;;;;;18.14;78.49;98982.34;5093227;28;20239;-73
2021/10/03 02:08:08;;;;;;;2.60;2.37;;;;;;;18.34;76.84;98980.72;5093298;28;20169;-73
2021/10/03 02:10:35;;;;;;;2.83;2.63;;;;;;;18.33;76.43;98973.59;5093382;28;20292;-73
2021/10/03 02:13:01;;;;;;;3.10;2.80;;;;;;;18.27;76.87;98979.97;5093357;28;20178;-73
2021/10/03 02:15:27;;;;;;;2.77;2.57;;;;;;;18.44;75.58;98988.19;5093208;28;20709;-73
2021/10/03 02:17:52;;;;;;;3.23;2.53;;;;;;;18.40;76.01;99020.63;5093211;28;20170;-73
2021/10/03 02:20:19;;;;;;;2.63;2.43;;;;;;;18.28;76.36;98996.16;5093446;28;20581;-73
2021/10/03 02:22:45;;;;;;;1.77;1.50;;;;;;;18.39;75.24;98994.16;5093212;28;20178;-73
2021/10/03 02:25:11;;;;;;;2.73;1.90;;;;;;;18.43;76.02;99008.75;5093068;28;20294;-73
2021/10/03 02:27:36;;;;;;;2.63;2.43;;;;;;;18.48;74.69;98984.63;5093125;28;20170;-73
2021/10/03 02:30:04;;;;;;;1.30;1.17;;;;;;;18.55;73.96;98998.44;5092927;28;20206;-73
2021/10/03 02:32:29;;;;;;;2.27;2.03;;;;;;;18.51;74.30;99001.19;5093169;28;20531;-73
2021/10/03 02:34:55;;;;;;;2.97;2.53;;;;;;;18.61;73.29;99002.38;5092793;28;20177;-73
2021/10/03 02:37:22;;;;;;;2.07;1.87;;;;;;;18.68;72.66;98996.84;5092901;28;20234;-73
2021/10/03 02:39:48;;;;;;;2.20;2.00;;;;;;;18.73;72.72;98997.22;5074605;28;20170;-73
2021/10/03 02:42:13;;;;;;;2.20;2.00;;;;;;;18.75;72.55;98994.03;5092869;28;20223;-73
2021/10/03 02:44:39;;;;;;;2.50;2.17;;;;;;;18.70;73.08;98981.41;5092452;28;20261;-73
2021/10/03 02:47:11;;;;;;;2.70;2.50;;;;;;;18.65;73.11;98987.34;5091708;28;20185;-73
2021/10/03 02:49:38;;;;;;;2.37;2.17;;;;;;;18.76;72.36;98983.75;5092804;28;20202;-73
2021/10/03 02:52:04;;;;;;;2.50;1.90;;;;;;;18.86;71.69;98986.50;5092678;28;20484;-73
2021/10/03 02:54:29;;;;;;;1.60;1.50;;;;;;;18.91;71.34;98994.34;5092568;28;20185;-73
2021/10/03 02:56:55;;;;;;;2.67;2.47;;;;;;;18.95;71.05;98991.56;5092603;28;20594;-73
2021/10/03 02:59:20;;;;;;;7.97;2.23;;;;;;;18.88;71.76;98997.94;5092508;28;20186;-73
2021/10/03 03:01:45;;;;;;;2.60;1.97;;;;;;;18.92;71.34;98995.94;5092514;28;20551;-73
2021/10/03 03:04:10;;;;;;;2.20;2.00;;;;;;;18.94;71.28;99010.16;5092630;28;20540;-73
2021/10/03 03:06:36;;;;;;;1.60;1.50;;;;;;;18.98;71.15;98990.78;5092264;28;20209;-73
2021/10/03 03:09:01;;;;;;;3.17;2.20;;;;;;;18.97;70.72;98992.75;5092288;28;20203;-73
2021/10/03 03:11:27;;;;;;;1.37;1.27;;;;;;;18.98;70.62;98994.34;5092131;28;20174;-73
2021/10/03 03:13:52;;;;;;;5.20;2.20;;;;;;;19.05;70.31;98992.72;5092089;28;20725;-73
2021/10/03 03:16:17;;;;;;;2.13;1.87;;;;;;;19.00;70.79;98991.94;5091883;28;20261;-73
2021/10/03 03:18:43;;;;;;;1.87;1.77;;;;;;;18.95;70.94;98995.16;5092123;28;20633;-73
2021/10/03 03:21:09;;;;;;;2.07;1.87;;;;;;;18.84;71.59;98985.31;5091970;28;20176;-73
2021/10/03 03:23:34;;;;;;;2.27;2.07;;;;;;;18.73;71.91;98991.69;5073425;28;20174;-73
2021/10/03 03:26:00;;;;;;;2.47;2.27;;;;;;;18.75;72.05;99009.84;5091543;28;20209;-73
2021/10/03 03:28:25;;;;;;;1.87;1.77;;;;;;;18.80;71.61;98992.81;5091575;28;20185;-73
2021/10/03 03:30:51;;;;;;;4.13;1.27;;;;;;;18.91;71.27;99001.88;5091627;28;20223;-73
2021/10/03 03:33:16;;;;;;;2.70;2.10;;;;;;;18.91;71.24;98999.09;5091716;28;20192;-73
2021/10/03 03:35:43;;;;;;;2.83;2.17;;;;;;;18.92;71.28;99009.78;5091269;28;20208;-73
2021/10/03 03:38:09;;;;;;;2.40;2.00;;;;;;;18.89;71.56;99001.50;5073263;28;20659;-73
2021/10/03 03:40:35;;;;;;;2.00;1.90;;;;;;;18.89;72.05;99013.34;5091441;28;20181;-73
2021/10/03 03:43:00;;;;;;;1.90;1.53;;;;;;;18.94;71.43;99018.47;5091307;28;20213;-73
2021/10/03 03:45:26;;;;;;;2.10;2.00;;;;;;;19.02;70.75;99019.22;5091306;28;20606;-73
2021/10/03 03:47:51;;;;;;;2.23;2.03;;;;;;;19.09;70.67;99027.47;5091419;28;20194;-73
2021/10/03 03:50:17;;;;;;;2.83;1.50;;;;;;;19.14;70.73;99021.53;5091165;28;20702;-73
2021/10/03 03:52:43;;;;;;;3.13;1.80;;;;;;;19.32;70.20;99035.28;5091851;28;20197;-73
2021/10/03 03:55:09;;;;;;;2.80;1.80;;;;;;;19.28;70.92;99023.44;5091108;28;20173;-73
2021/10/03 03:57:36;;;;;;;2.27;1.63;;;;;;;19.21;71.76;99023.47;5090893;28;20185;-73
2021/10/03 04:00:02;;;;;;;2.40;1.87;;;;;;;19.14;72.35;99029.06;5091343;28;20165;-73
2021/10/03 04:02:27;;;;;;;2.00;1.90;;;;;;;19.17;72.37;99031.00;5086612;28;20178;-73
2021/10/03 04:04:52;;;;;;;2.70;2.27;;;;;;;19.05;73.95;99034.25;5090887;28;20636;-73
2021/10/03 04:07:20;;;;;;;1.90;1.80;;;;;;;19.12;73.67;99032.25;5091240;28;20173;-73
2021/10/03 04:09:46;;;;;;;1.90;1.57;;;;;;;19.08;74.38;99048.06;5090874;28;20205;-73
2021/10/03 04:12:11;;;;;;;2.03;1.80;;;;;;;19.03;74.47;99035.44;5091069;28;20185;-73
2021/10/03 04:14:38;;;;;;;2.00;1.90;;;;;;;18.92;75.12;99044.97;5072680;28;20174;-73
2021/10/03 04:17:04;;;;;;;1.40;1.30;;;;;;;18.96;73.72;99032.72;5072842;28;20174;-73
2021/10/03 04:19:30;;;;;;;1.57;1.47;;;;;;;18.95;74.09;99030.31;5091091;28;20173;-73
2021/10/03 04:21:55;;;;;;;1.37;1.07;;;;;;;18.99;73.89;99034.66;5091072;28;20257;-73
2021/10/03 04:24:20;;;;;;;2.37;2.03;;;;;;;19.09;73.11;99035.00;5090844;28;20649;-73
2021/10/03 04:26:46;;;;;;;1.47;1.10;;;;;;;19.15;73.02;99030.63;5090758;28;20208;-73
2021/10/03 04:29:11;;;;;;;2.33;1.63;;;;;;;19.17;73.24;99042.09;5090909;28;20205;-73
2021/10/03 04:31:36;;;;;;;2.23;2.03;;;;;;;19.15;73.07;99025.09;5091080;28;20212;-73
2021/10/03 04:34:02;;;;;;;2.20;2.00;;;;;;;19.09;73.20;99021.16;5090460;28;20539;-73
2021/10/03 04:36:27;;;;;;;1.90;1.80;;;;;;;19.02;73.90;99020.00;5090954;28;20253;-73
2021/10/03 04:38:53;;;;;;;2.70;2.17;;;;;;;18.98;73.98;99004.63;5090799;28;20261;-73
2021/10/03 04:41:21;;;;;;;2.00;1.90;;;;;;;18.99;73.82;99018.06;5090687;28;20173;-73
2021/10/03 04:43:46;;;;;;;2.40;2.20;;;;;;;19.04;72.83;99016.84;5072358;28;20174;-73
2021/10/03 04:46:12;;;;;;;2.40;2.20;;;;;;;18.94;73.90;99017.66;5090846;28;20177;-73
2021/10/03 04:48:38;;;;;;;2.20;2.00;;;;;;;18.99;73.38;99017.28;5090451;28;20514;-73
2021/10/03 04:51:03;;;;;;;2.60;2.30;;;;;;;18.97;72.85;99014.91;5090756;28;20177;-73
2021/10/03 04:53:29;;;;;;;2.20;2.00;;;;;;;19.00;73.25;99013.31;5090669;28;20182;-73
2021/10/03 04:55:54;;;;;;;2.37;0.80;;;;;;;19.11;72.73;99025.13;5090522;28;20258;-73
2021/10/03 04:58:20;;;;;;;2.03;1.93;;;;;;;19.03;73.36;99018.81;5090480;28;20626;-73
2021/10/03 05:00:45;;;;;;;2.37;2.17;;;;;;;19.07;72.37;99021.56;5072284;28;20258;-73
2021/10/03 05:03:10;;;;;;;1.93;1.83;;;;;;;19.13;71.81;99008.91;5090758;28;20181;-73
2021/10/03 05:05:36;;;;;;;2.70;2.00;;;;;;;19.24;71.34;99015.16;5090240;28;20228;-73
2021/10/03 05:08:02;;;;;;;2.50;1.97;;;;;;;19.21;71.45;99015.16;5090378;28;20272;-72
2021/10/03 05:10:27;;;;;;;1.77;1.67;;;;;;;19.31;70.72;99023.41;5093638;28;20205;-73
2021/10/03 05:12:53;;;;;;;2.40;2.20;;;;;;;19.32;70.43;99002.06;5094317;28;20188;-73
2021/10/03 05:15:18;;;;;;;2.67;2.10;;;;;;;19.30;70.67;99016.31;5094651;28;20471;-73
2021/10/03 05:17:43;;;;;;;2.47;2.27;;;;;;;19.23;71.02;99013.56;5094504;28;20189;-73
2021/10/03 05:20:09;;;;;;;2.50;2.30;;;;;;;19.20;71.37;99005.28;5094512;28;20585;-73
2021/10/03 05:22:35;;;;;;;1.93;1.73;;;;;;;19.23;70.92;98998.94;5094395;28;20679;-73
2021/10/03 05:25:01;;;;;;;1.87;1.77;;;;;;;19.22;70.74;99006.44;5094452;28;20185;-73
2021/10/03 05:27:28;;;;;;;2.90;1.93;;;;;;;19.20;70.74;99000.53;5094061;28;20261;-73
2021/10/03 05:29:53;;;;;;;2.50;2.30;;;;;;;19.18;71.49;99004.91;5094288;28;20201;-73
2021/10/03 05:32:19;;;;;;;2.40;2.20;;;;;;;19.16;71.89;99012.81;5076041;28;20185;-73
2021/10/03 05:34:44;;;;;;;1.97;1.87;;;;;;;19.03;72.89;99007.75;5094400;28;20177;-73
2021/10/03 05:37:10;;;;;;;2.17;2.00;;;;;;;18.96;73.33;99012.53;5093990;28;20296;-73
2021/10/03 05:39:35;;;;;;;2.23;2.00;;;;;;;18.91;73.71;99004.66;5093940;28;20182;-73
2021/10/03 05:42:01;;;;;;;2.30;1.93;;;;;;;18.76;74.48;99003.13;5094005;28;20177;-73
2021/10/03 05:44:26;;;;;;;2.20;2.00;;;;;;;18.78;73.96;99007.06;5093538;28;20625;-73
2021/10/03 05:46:51;;;;;;;2.10;2.00;;;;;;;18.77;74.46;99008.25;5093850;28;20609;-73
2021/10/03 05:49:17;;;;;;;2.43;2.23;;;;;;;18.72;74.15;99008.69;5093312;28;20212;-73
2021/10/03 05:51:42;;;;;;;2.20;2.00;;;;;;;18.72;74.28;99003.94;5094104;28;20170;-73
2021/10/03 05:54:08;;;;;;;2.23;2.10;;;;;;;18.75;73.82;99009.84;5093640;28;20695;-73
2021/10/03 05:56:35;;;;;;;2.37;2.20;;;;;;;18.63;74.43;99013.81;5093810;28;20629;-73
2021/10/03 05:59:03;;;;;;;2.63;2.43;;;;;;;18.53;74.36;99000.81;5093652;28;20205;-73
2021/10/03 06:01:29;;;;;;;2.43;2.20;;;;;;;18.53;74.95;99009.13;5093709;28;20177;-73
2021/10/03 06:03:55;;;;;;;1.63;1.53;;;;;;;18.52;75.65;99007.56;5093302;28;20548;-73
2021/10/03 06:06:21;;;;;;;2.43;2.23;;;;;;;18.41;76.67;99015.88;5075150;28;20217;-73
2021/10/03 06:08:46;;;;;;;2.17;2.07;;;;;;;18.40;76.33;99012.31;5093241;28;20618;-73
2021/10/03 06:11:12;;;;;;;3.70;1.97;;;;;;;18.41;76.80;99018.63;5093529;28;20170;-73
2021/10/03 06:13:38;;;;;;;2.60;2.40;;;;;;;18.34;77.57;99015.88;5093225;28;20181;-73
2021/10/03 06:16:04;;;;;;;2.27;2.17;;;;;;;18.32;78.73;99010.75;5093201;28;20201;-73
2021/10/03 06:18:29;;;;;;;2.30;2.10;;;;;;;18.28;78.61;99015.50;5093066;28;20208;-73
2021/10/03 06:20:55;;;;;;;2.40;2.20;;;;;;;18.16;79.15;99013.16;5091775;28;20181;-73
2021/10/03 06:23:20;;;;;;;2.13;1.93;;;;;;;18.25;79.01;99018.28;5093128;28;20180;-73
2021/10/03 06:25:45;;;;;;;2.20;2.00;;;;;;;18.24;77.61;99017.50;5093018;28;20170;-73
2021/10/03 06:28:11;;;;;;;2.30;2.10;;;;;;;18.25;76.75;99021.03;5093334;28;20667;-73
2021/10/03 06:30:36;;;;;;;2.07;1.87;;;;;;;18.20;77.36;99015.91;5092972;28;20204;-73
2021/10/03 06:33:02;;;;;;;2.57;2.23;;;;;;;18.24;76.64;99025.78;5092884;28;20339;-73
2021/10/03 06:35:29;;;;;;;2.50;2.17;;;;;;;18.22;77.14;99022.59;5092450;28;20597;-73
2021/10/03 06:37:57;;;;;;;2.90;2.03;;;;;;;18.22;76.87;99019.84;5092703;28;20174;-73
2021/10/03 06:40:23;;;;;;;2.10;1.90;;;;;;;18.19;78.10;99026.16;5092730;28;20201;-74
2021/10/03 06:42:49;;;;;;;1.90;1.70;;;;;;;18.24;78.39;99023.03;5092785;28;20174;-74
2021/10/03 06:45:15;;;;;;;1.90;1.63;;;;;;;18.16;78.51;99021.44;5092263;28;20181;-74
2021/10/03 06:47:41;;;;;;;2.00;1.90;;;;;;;18.12;80.16;99170.72;5092778;28;20178;-73
2021/10/03 06:50:07;;;;;;;2.07;1.87;;;;;;;18.09;80.13;99025.00;5092626;28;20210;-74
2021/10/03 06:52:32;;;;;;;2.10;1.90;;;;;;;18.03;79.96;99023.81;5074504;28;20185;-74
2021/10/03 06:54:57;;;;;;;2.30;2.10;;;;;;;18.02;79.56;99024.22;5092284;28;20178;-73
2021/10/03 06:57:23;;;;;;;2.57;2.37;;;;;;;17.95;79.82;99027.00;5092448;28;20205;-73
2021/10/03 06:59:48;;;;;;;2.20;1.93;;;;;;;17.93;79.91;99026.59;5092382;28;20531;-73
2021/10/03 07:02:20;;;;;;;2.20;2.00;;;;;;;18.03;78.48;99034.88;5092505;28;20162;-73
2021/10/03 07:04:46;;;;;;;2.13;1.93;;;;;;;18.10;77.17;99034.88;5092503;28;20330;-73
2021/10/03 07:07:11;;;;;;;1.73;1.57;;;;;;;18.13;77.08;99039.63;5092337;28;20694;-73
2021/10/03 07:09:37;;;;;;;2.50;1.73;;;;;;;18.16;76.68;99038.03;5092532;28;20193;-74
2021/10/03 07:12:02;;;;;;;2.10;1.90;;;;;;;18.18;76.09;99034.88;5092315;28;20174;-73
2021/10/03 07:14:28;;;;;;;2.50;2.30;;;;;;;18.19;76.19;99042.75;5073961;28;20644;-74
2021/10/03 07:16:53;;;;;;;2.10;1.90;;;;;;;18.18;75.07;99046.72;5092430;28;20177;-74
2021/10/03 07:19:18;;;;;;;1.73;1.50;;;;;;;18.24;74.77;99047.13;5092171;28;20298;-74
2021/10/03 07:21:44;;;;;;;2.17;1.97;;;;;;;18.28;75.11;99040.38;5092163;28;20206;-73
2021/10/03 07:24:09;;;;;;;2.23;2.03;;;;;;;18.27;74.84;99052.63;5091993;28;20178;-74
2021/10/03 07:26:34;;;;;;;2.30;1.93;;;;;;;18.30;75.08;99053.81;5092105;28;20538;-73
2021/10/03 07:29:00;;;;;;;1.80;1.70;;;;;;;18.32;75.30;99049.47;5092477;28;20235;-73
2021/10/03 07:31:25;;;;;;;2.03;1.93;;;;;;;18.28;74.82;99047.88;5095071;28;20621;-73
2021/10/03 07:33:51;;;;;;;2.00;1.90;;;;;;;18.21;74.70;99040.38;5097732;28;20186;-74
2021/10/03 07:36:19;;;;;;;1.30;1.20;;;;;;;18.21;74.91;99037.63;5092889;28;20215;-74
2021/10/03 07:38:44;;;;;;;2.00;1.90;;;;;;;18.20;73.78;99043.53;5092498;28;20290;-73
2021/10/03 07:41:10;;;;;;;3.93;1.60;;;;;;;18.21;73.86;99028.53;5091701;28;20231;-73
2021/10/03 07:43:35;;;;;;;3.37;1.83;;;;;;;18.26;73.24;99036.44;5091421;28;20316;-73
2021/10/03 07:46:00;;;;;;;2.50;2.30;;;;;;;18.23;72.98;99040.78;5088194;28;20276;-74
2021/10/03 07:48:26;;;;;;;1.90;1.70;;;;;;;18.28;73.42;99050.66;5091555;28;20193;-75
2021/10/03 07:50:51;;;;;;;1.77;1.67;;;;;;;18.35;72.02;99051.41;5091847;28;20209;-74
2021/10/03 07:53:17;;;;;;;1.93;1.83;;;;;;;18.36;71.61;99050.22;5091639;28;20181;-73
2021/10/03 07:55:43;;;;;;;1.40;1.30;;;;;;;18.42;71.40;99050.63;5091446;28;20186;-74
2021/10/03 07:58:09;;;;;;;1.90;1.80;;;;;;;18.43;71.07;99041.16;5091425;28;20209;-73
2021/10/03 08:00:35;;;;;;;2.10;1.90;;;;;;;18.53;69.47;99056.16;5091505;28;20208;-73
2021/10/03 08:03:01;;;;;;;1.47;1.37;;;;;;;18.56;69.45;99044.28;5073233;28;20181;-73
2021/10/03 08:05:27;;;;;;;1.47;1.37;;;;;;;18.60;69.36;99062.44;5091314;28;20193;-73
2021/10/03 08:07:52;;;;;;;1.73;1.63;;;;;;;18.54;70.41;99055.75;5091330;28;20180;-72
2021/10/03 08:10:18;;;;;;;1.60;1.50;;;;;;;18.56;68.59;99060.88;5091197;28;20273;-72
2021/10/03 08:12:47;;;;;;;1.50;1.40;;;;;;;18.58;68.96;99055.72;5091333;28;20282;-72
2021/10/03 08:15:13;;;;;;;1.90;1.80;;;;;;;18.56;68.38;99049.81;5091125;28;20170;-73
2021/10/03 08:17:39;;;;;;;1.63;1.53;;;;;;;18.56;68.37;99047.03;5091204;28;20196;-73
2021/10/03 08:20:06;;;;;;;1.70;1.50;;;;;;;18.58;68.41;99052.97;5091114;28;20181;-73
2021/10/03 08:22:31;;;;;;;1.47;1.27;;;;;;;18.72;67.31;99061.25;5091122;28;20582;-73
2021/10/03 08:24:57;;;;;;;1.63;1.53;;;;;;;18.65;67.57;99047.44;5090900;28;20170;-72
2021/10/03 08:27:22;;;;;;;2.30;1.93;;;;;;;18.62;67.43;99045.44;5090969;28;20539;-73
2021/10/03 08:29:47;;;;;;;1.47;1.37;;;;;;;18.64;68.02;99051.38;5090962;28;20561;-73
2021/10/03 08:32:13;;;;;;;1.70;1.60;;;;;;;18.68;67.27;99047.44;5090876;28;20173;-73
2021/10/03 08:34:38;;;;;;;4.90;1.63;;;;;;;18.68;67.95;99057.72;5090820;28;20165;-73
2021/10/03 08:37:04;;;;;;;1.37;1.27;;;;;;;18.73;67.21;99049.78;5090890;28;20174;-73
2021/10/03 08:39:29;;;;;;;1.83;1.30;;;;;;;18.76;66.79;99055.72;5090725;28;20177;-76
2021/10/03 08:41:55;;;;;;;2.97;1.77;;;;;;;18.71;67.38;99049.41;5090939;28;20623;-75
2021/10/03 08:44:20;;;;;;;2.17;1.43;;;;;;;18.69;67.53;99054.56;5089624;28;20177;-74
2021/10/03 08:46:47;;;;;;;2.93;1.60;;;;;;;18.69;67.59;99048.22;5090830;28;20176;-76
2021/10/03 08:49:13;;;;;;;1.30;1.20;;;;;;;18.76;66.09;99064.78;5085341;28;20199;-74
2021/10/03 08:51:38;;;;;;;2.23;1.60;;;;;;;18.69;66.96;99051.00;5076707;28;20178;-75
2021/10/03 08:54:04;;;;;;;1.23;1.13;;;;;;;18.79;67.22;99050.16;5090615;28;20637;-77
2021/10/03 08:56:30;;;;;;;1.20;1.10;;;;;;;18.84;66.09;99049.75;5090708;28;20653;-73
2021/10/03 08:58:55;;;;;;;1.80;1.70;;;;;;;18.84;66.31;99055.28;5072435;28;20204;-72
2021/10/03 09:01:21;;;;;;;2.57;1.50;;;;;;;18.84;65.66;99055.28;5090526;28;20180;-73
2021/10/03 09:03:47;;;;;;;1.57;1.37;;;;;;;18.94;64.67;99059.97;5090404;28;20174;-73
2021/10/03 09:06:13;;;;;;;1.43;1.33;;;;;;;18.96;65.15;99060.38;5090443;28;20189;-73
2021/10/03 09:08:43;;;;;;;1.43;1.33;;;;;;;18.96;65.19;99063.16;5090262;28;20170;-73
2021/10/03 09:11:10;;;;;;;2.87;1.47;;;;;;;18.96;65.49;99060.38;5090587;28;20189;-73
2021/10/03 09:13:35;;;;;;;1.90;1.80;;;;;;;18.91;65.96;99065.53;5090291;28;20706;-74
2021/10/03 09:16:23;;;;;;;1.80;1.70;;;;;;;18.95;65.51;99069.06;5090590;28;20177;-73
2021/10/03 09:19:00;;;;;;;1.60;1.50;;;;;;;19.03;65.25;99067.88;5090528;28;20822;-73
2021/10/03 09:21:28;;;;;;;1.70;1.60;;;;;;;19.00;65.64;99069.47;5090482;28;20174;-73
2021/10/03 09:24:26;;;;;;;1.93;1.70;;;;;;;19.11;65.48;99063.88;5072051;28;20178;-73
2021/10/03 09:27:01;;;;;;;1.83;1.70;;;;;;;19.09;65.53;99066.25;5044880;28;20500;-73
2021/10/03 09:29:32;;;;;;;3.83;1.60;;;;;;;19.11;64.84;99079.72;5090444;28;20265;-73
2021/10/03 09:32:18;;;;;;;2.10;1.73;;;;;;;19.16;64.85;99082.06;5072167;28;20178;-72
2021/10/03 09:34:46;;;;;;;2.00;1.83;;;;;;;19.21;65.00;99089.94;5090152;28;20701;-72
2021/10/03 09:37:25;;;;;;;2.53;1.60;;;;;;;19.18;64.65;99085.19;5090084;28;20184;-72
2021/10/03 09:40:13;;;;;;;2.00;1.87;;;;;;;19.18;64.30;99074.13;5090037;28;20177;-72
2021/10/03 09:42:40;;;;;;;1.50;1.40;;;;;;;19.22;64.46;99070.13;5089779;28;20174;-72
2021/10/03 09:45:06;;;;;;;1.70;1.60;;;;;;;19.26;63.87;99076.47;5089096;28;20167;-72
2021/10/03 09:47:32;;;;;;;1.77;1.43;;;;;;;19.29;64.25;99077.63;5089825;28;20259;-72
2021/10/03 09:49:57;;;;;;;1.97;1.83;;;;;;;19.29;64.40;99077.63;5089708;28;20237;-72
2021/10/03 09:52:24;;;;;;;1.53;1.43;;;;;;;19.33;63.64;99083.94;5089994;28;20189;-72
2021/10/03 09:54:51;;;;;;;2.00;1.80;;;;;;;19.45;63.31;99083.47;5090152;28;20386;-72
2021/10/03 09:57:20;;;;;;;2.20;2.00;;;;;;;19.51;63.29;99084.63;5093430;28;20208;-72
2021/10/03 09:59:45;;;;;;;1.70;1.60;;;;;;;19.60;63.74;99078.69;5093355;28;20690;-72
2021/10/03 10:02:14;;;;;;;1.50;1.40;;;;;;;19.59;64.01;99083.44;5093317;28;20170;-72
2021/10/03 10:04:39;;;;;;;2.33;1.40;;;;;;;19.67;63.73;99077.81;5093421;28;20174;-72
2021/10/03 10:07:05;;;;;;;1.70;1.60;;;;;;;19.71;63.21;99084.16;5093185;28;20698;-72
2021/10/03 10:09:33;;;;;;;1.90;1.73;;;;;;;19.74;63.90;99073.03;5093094;28;20201;-72
2021/10/03 10:12:12;;;;;;;1.70;1.60;;;;;;;19.79;64.05;99071.81;5093699;28;20185;-72
2021/10/03 10:14:41;;;;;;;2.03;1.83;;;;;;;19.91;63.18;99080.44;5092924;28;20184;-73
2021/10/03 10:17:38;;;;;;;1.97;1.87;;;;;;;19.88;64.00;99072.16;5074993;28;20177;-72
2021/10/03 10:20:20;;;;;;;1.90;1.80;;;;;;;19.99;63.44;99080.41;5093245;28;20177;-73
2021/10/03 10:22:55;;;;;;;2.20;2.00;;;;;;;19.99;62.99;99077.63;5092943;28;20177;-73
2021/10/03 10:25:45;;;;;;;1.83;1.73;;;;;;;20.04;63.01;99077.97;5092740;28;20398;-73
2021/10/03 10:28:32;;;;;;;1.60;1.50;;;;;;;19.95;63.62;99060.19;5092818;28;20166;-72
2021/10/03 10:31:15;;;;;;;1.70;1.60;;;;;;;20.09;62.46;99076.72;5092384;28;20253;-72
2021/10/03 10:33:49;;;;;;;1.53;1.20;;;;;;;20.19;62.02;99064.75;5092481;28;20176;-72
2021/10/03 10:36:19;;;;;;;3.07;1.83;;;;;;;20.19;62.72;99073.09;5092764;28;20180;-72
2021/10/03 10:39:08;;;;;;;1.40;1.30;;;;;;;20.33;60.10;99075.72;5093036;28;20170;-72
2021/10/03 10:41:39;;;;;;;1.67;1.57;;;;;;;20.38;60.65;99072.50;5081760;28;20223;-72
2021/10/03 10:44:29;;;;;;;1.50;1.40;;;;;;;20.45;61.17;99069.69;5092030;28;20170;-72
2021/10/03 10:46:55;;;;;;;1.83;1.50;;;;;;;20.52;60.07;99076.38;5092452;28;20182;-72
2021/10/03 10:49:26;;;;;;;1.50;1.40;;;;;;;20.56;59.76;99068.81;5074146;28;20300;-71
2021/10/03 10:52:19;;;;;;;2.10;1.90;;;;;;;20.63;60.12;99068.72;5092633;28;20170;-73
2021/10/03 10:55:09;;;;;;;1.60;1.50;;;;;;;20.68;59.19;99076.59;5092106;28;20199;-73
2021/10/03 10:57:46;;;;;;;4.27;1.60;;;;;;;20.61;60.12;99080.25;5091959;28;20626;-72
2021/10/03 11:00:18;;;;;;;1.90;1.73;;;;;;;20.72;58.28;99071.81;5092238;28;20205;-72
2021/10/03 11:02:51;;;;;;;1.17;1.07;;;;;;;20.80;57.73;99068.53;5091021;28;20265;-72
2021/10/03 11:05:31;;;;;;;1.70;1.60;;;;;;;20.73;58.00;99063.06;5091835;28;20190;-72
2021/10/03 11:08:16;;;;;;;1.43;1.33;;;;;;;20.84;57.52;99056.63;5091362;28;20204;-72
2021/10/03 11:10:56;;;;;;;2.03;1.60;;;;;;;20.84;57.52;99053.84;5091984;28;20229;-72
2021/10/03 11:13:46;;;;;;;1.87;1.77;;;;;;;20.74;58.02;99053.53;5091393;28;20213;-72
2021/10/03 11:16:39;;;;;;;1.77;1.57;;;;;;;20.78;58.44;99068.16;5073758;28;20181;-72
2021/10/03 11:19:10;;;;;;;1.87;1.37;;;;;;;20.85;56.87;99056.19;5088411;28;20335;-73
2021/10/03 11:21:39;;;;;;;2.20;1.90;;;;;;;20.84;57.59;99076.03;5091925;28;20200;-72
2021/10/03 11:24:07;;;;;;;1.90;1.80;;;;;;;20.75;57.42;99071.75;5091494;28;20180;-72
2021/10/03 11:26:47;;;;;;;2.30;1.60;;;;;;;20.89;57.61;99068.03;5091761;28;20182;-72
2021/10/03 11:29:14;;;;;;;2.03;1.60;;;;;;;20.97;56.99;99077.84;5091636;28;20197;-73
2021/10/03 11:31:47;;;;;;;1.53;1.40;;;;;;;21.06;56.45;99063.47;5091576;28;20184;-72
2021/10/03 11:34:40;;;;;;;1.97;1.37;;;;;;;21.15;56.41;99057.41;5091388;28;20166;-72
2021/10/03 11:37:15;;;;;;;1.30;1.20;;;;;;;21.17;56.55;99071.66;5091900;28;20680;-72